Time;durP1;ratioP1;P1;durP2;ratioP2;P2;SDS_P1;SDS_P2;PMS_P1;PMS_P2;Temp;Humidity;BMP_temperature;BMP_pressure;BME280_temperature;BME280_humidity;BME280_pressure;Samples;Min_cycle;Max_cycle;Signal;HPM_P1;HPM_P2
2021/11/11 00:00:16;;;;;;;27.92;6.32;;;;;;;;;;4993257;28;20043;-74
2021/11/11 00:02:46;;;;;;;33.65;5.97;;;;;;;;;;4994100;28;20089;-74
2021/11/11 00:05:14;;;;;;;32.70;7.50;;;;;;;;;;4993620;28;20042;-71
2021/11/11 00:07:41;;;;;;;32.42;5.90;;;;;;;;;;4994013;28;20051;-75
2021/11/11 00:10:09;;;;;;;25.85;5.20;;;;;;;;;;4993988;28;20046;-71
2021/11/11 00:12:37;;;;;;;25.85;5.60;;;;;;;;;;4991567;28;20046;-71
2021/11/11 00:15:08;;;;;;;30.75;6.25;;;;;;;;;;5024655;28;20112;-70
2021/11/11 00:17:36;;;;;;;35.45;5.20;;;;;;;;;;4993859;28;20034;-73
2021/11/11 00:20:05;;;;;;;28.15;5.82;;;;;;;;;;4993777;28;20050;-74
2021/11/11 00:22:32;;;;;;;29.98;5.25;;;;;;;;;;5025544;28;20414;-75
2021/11/11 00:24:59;;;;;;;16.95;4.60;;;;;;;;;;4994102;28;20045;-70
2021/11/11 00:27:27;;;;;;;29.05;5.13;;;;;;;;;;4994180;28;20039;-73
2021/11/11 00:29:55;;;;;;;24.13;5.72;;;;;;;;;;4993282;28;20038;-74
2021/11/11 00:32:25;;;;;;;27.15;5.70;;;;;;;;;;5008694;28;20049;-75
2021/11/11 00:34:53;;;;;;;25.77;5.80;;;;;;;;;;4994273;28;20129;-71
2021/11/11 00:37:23;;;;;;;29.15;5.90;;;;;;;;;;4993857;28;20044;-75
2021/11/11 00:39:52;;;;;;;20.02;5.10;;;;;;;;;;5024531;28;20066;-70
2021/11/11 00:42:20;;;;;;;17.92;5.13;;;;;;;;;;4992582;28;20046;-70
2021/11/11 00:44:51;;;;;;;24.83;6.20;;;;;;;;;;4993387;28;20473;-70
2021/11/11 00:47:19;;;;;;;23.10;5.30;;;;;;;;;;4992530;28;20047;-70
2021/11/11 00:49:47;;;;;;;40.38;6.90;;;;;;;;;;4993973;28;20046;-74
2021/11/11 00:52:15;;;;;;;29.63;6.32;;;;;;;;;;4994030;28;20042;-75
2021/11/11 00:54:43;;;;;;;23.65;6.30;;;;;;;;;;4992721;28;20039;-75
2021/11/11 00:57:29;;;;;;;18.25;4.95;;;;;;;;;;4992220;28;20425;-70
2021/11/11 00:59:57;;;;;;;21.45;4.95;;;;;;;;;;4992148;28;20093;-71
2021/11/11 01:02:26;;;;;;;26.40;5.07;;;;;;;;;;4993674;28;20043;-74
2021/11/11 01:04:54;;;;;;;26.08;5.72;;;;;;;;;;4992108;28;20054;-75
2021/11/11 01:07:22;;;;;;;29.38;6.78;;;;;;;;;;4993406;28;20082;-71
2021/11/11 01:09:49;;;;;;;28.70;6.30;;;;;;;;;;4993812;28;20493;-71
2021/11/11 01:12:19;;;;;;;26.88;5.57;;;;;;;;;;4992096;28;20045;-75
2021/11/11 01:14:46;;;;;;;25.40;6.32;;;;;;;;;;4993520;28;20466;-70
2021/11/11 01:17:14;;;;;;;26.05;5.68;;;;;;;;;;4995863;28;20453;-70
2021/11/11 01:19:42;;;;;;;28.25;5.82;;;;;;;;;;4996966;28;20054;-70
2021/11/11 01:22:10;;;;;;;25.88;6.53;;;;;;;;;;4997450;28;20050;-74
2021/11/11 01:24:37;;;;;;;30.25;5.97;;;;;;;;;;5012296;28;20050;-69
2021/11/11 01:27:06;;;;;;;28.48;5.65;;;;;;;;;;4995520;28;20055;-73
2021/11/11 01:29:34;;;;;;;22.88;5.60;;;;;;;;;;4996352;28;20135;-70
2021/11/11 01:32:11;;;;;;;23.67;5.63;;;;;;;;;;4997454;28;20152;-75
2021/11/11 01:34:39;;;;;;;17.70;4.60;;;;;;;;;;4996307;28;20050;-71
2021/11/11 01:37:08;;;;;;;27.10;5.30;;;;;;;;;;4995732;28;20052;-71
2021/11/11 01:39:41;;;;;;;32.92;6.63;;;;;;;;;;4995251;28;20088;-75
2021/11/11 01:42:11;;;;;;;20.77;5.18;;;;;;;;;;4995176;28;20042;-73
2021/11/11 01:44:49;;;;;;;24.73;6.10;;;;;;;;;;4995774;28;20122;-70
2021/11/11 01:47:18;;;;;;;29.02;5.85;;;;;;;;;;4995420;28;20105;-71
2021/11/11 01:49:49;;;;;;;22.92;6.60;;;;;;;;;;4996007;28;20518;-70
2021/11/11 01:52:18;;;;;;;22.73;6.00;;;;;;;;;;4995919;28;20138;-69
2021/11/11 01:54:52;;;;;;;20.02;7.50;;;;;;;;;;4995489;28;20042;-69
2021/11/11 01:57:23;;;;;;;22.80;6.10;;;;;;;;;;4995009;28;20117;-70
2021/11/11 01:59:57;;;;;;;24.27;6.80;;;;;;;;;;4996656;28;20042;-70
2021/11/11 02:02:41;;;;;;;18.60;5.50;;;;;;;;;;4996698;28;20046;-71
2021/11/11 02:05:18;;;;;;;24.92;6.20;;;;;;;;;;4995487;28;20046;-75
2021/11/11 02:07:48;;;;;;;23.15;6.15;;;;;;;;;;4995202;28;20046;-75
2021/11/11 02:10:16;;;;;;;27.20;6.22;;;;;;;;;;4994996;28;20046;-70
2021/11/11 02:12:48;;;;;;;25.13;5.55;;;;;;;;;;5028088;28;20057;-74
2021/11/11 02:15:17;;;;;;;30.73;5.18;;;;;;;;;;5027531;28;20509;-70
2021/11/11 02:17:47;;;;;;;24.75;6.18;;;;;;;;;;4994888;28;20088;-74
2021/11/11 02:20:23;;;;;;;18.50;5.65;;;;;;;;;;4995223;28;20052;-75
2021/11/11 02:23:15;;;;;;;19.73;5.47;;;;;;;;;;4995110;28;20133;-70
2021/11/11 02:25:54;;;;;;;21.88;5.82;;;;;;;;;;4995832;28;20046;-71
2021/11/11 02:28:26;;;;;;;20.17;5.63;;;;;;;;;;4994184;28;20042;-71
2021/11/11 02:30:54;;;;;;;23.17;4.95;;;;;;;;;;5028070;28;20630;-75
2021/11/11 02:33:33;;;;;;;20.52;5.05;;;;;;;;;;4994998;28;20542;-71
2021/11/11 02:36:02;;;;;;;24.77;5.78;;;;;;;;;;4994904;28;20719;-75
2021/11/11 02:38:32;;;;;;;20.90;5.35;;;;;;;;;;4994498;28;20049;-75
2021/11/11 02:41:00;;;;;;;20.58;4.90;;;;;;;;;;5027321;28;20038;-75
2021/11/11 02:43:28;;;;;;;24.80;5.35;;;;;;;;;;4996123;28;20046;-69
2021/11/11 02:46:02;;;;;;;21.17;4.90;;;;;;;;;;4994720;28;20074;-70
2021/11/11 02:48:31;;;;;;;20.20;4.90;;;;;;;;;;4994879;28;20457;-71
2021/11/11 02:51:01;;;;;;;26.52;5.28;;;;;;;;;;4994859;28;20066;-72
2021/11/11 02:53:28;;;;;;;27.42;4.80;;;;;;;;;;4994534;28;20482;-70
2021/11/11 02:55:56;;;;;;;14.27;5.05;;;;;;;;;;5026964;28;20042;-71
2021/11/11 02:58:27;;;;;;;20.73;4.90;;;;;;;;;;4994523;28;20409;-70
2021/11/11 03:01:05;;;;;;;17.60;3.90;;;;;;;;;;4994399;28;20050;-71
2021/11/11 03:03:34;;;;;;;20.13;5.15;;;;;;;;;;4994426;28;20053;-70
2021/11/11 03:06:05;;;;;;;18.67;4.50;;;;;;;;;;4994334;28;20137;-70
2021/11/11 03:08:35;;;;;;;24.33;4.78;;;;;;;;;;4994207;28;20070;-75
2021/11/11 03:11:07;;;;;;;21.30;4.78;;;;;;;;;;4993956;28;20085;-70
2021/11/11 03:13:45;;;;;;;29.70;4.68;;;;;;;;;;5026977;28;20047;-75
2021/11/11 03:16:12;;;;;;;25.35;5.85;;;;;;;;;;4994208;28;20142;-70
2021/11/11 03:18:40;;;;;;;17.88;4.93;;;;;;;;;;4993647;28;20050;-75
2021/11/11 03:21:09;;;;;;;19.23;4.78;;;;;;;;;;4993898;28;20058;-75
2021/11/11 03:23:36;;;;;;;18.38;5.45;;;;;;;;;;5009740;28;20046;-75
2021/11/11 03:26:07;;;;;;;22.15;4.43;;;;;;;;;;4994040;28;20085;-73
2021/11/11 03:28:41;;;;;;;16.83;4.53;;;;;;;;;;5009240;28;20410;-71
2021/11/11 03:31:14;;;;;;;24.67;4.65;;;;;;;;;;4994015;28;20050;-73
2021/11/11 03:33:42;;;;;;;18.88;5.32;;;;;;;;;;5026789;28;20046;-69
2021/11/11 03:36:10;;;;;;;17.05;4.00;;;;;;;;;;4993653;28;20042;-70
2021/11/11 03:38:38;;;;;;;18.75;5.50;;;;;;;;;;4992941;28;20046;-74
2021/11/11 03:41:06;;;;;;;15.95;4.38;;;;;;;;;;4993464;28;20050;-74
2021/11/11 03:43:35;;;;;;;19.88;4.90;;;;;;;;;;4993861;28;20054;-71
2021/11/11 03:46:11;;;;;;;18.65;5.32;;;;;;;;;;4993457;28;20098;-71
2021/11/11 03:48:40;;;;;;;;;;;;;;;;;;4994229;28;20046;-75
2021/11/11 03:51:09;;;;;;;29.23;6.32;;;;;;;;;;4993685;28;19921;-74
2021/11/11 03:53:38;;;;;;;21.17;4.75;;;;;;;;;;4994449;28;20066;-75
2021/11/11 03:56:07;;;;;;;20.17;5.15;;;;;;;;;;4993221;28;20422;-70
2021/11/11 03:58:35;;;;;;;26.85;5.78;;;;;;;;;;4992989;28;20116;-75
2021/11/11 04:01:03;;;;;;;24.92;5.07;;;;;;;;;;4993392;28;20046;-73
2021/11/11 04:03:32;;;;;;;22.83;6.38;;;;;;;;;;4992520;28;20073;-71
2021/11/11 04:06:00;;;;;;;23.30;5.25;;;;;;;;;;4993078;28;20046;-71
2021/11/11 04:08:35;;;;;;;23.48;5.68;;;;;;;;;;4994082;28;20042;-75
2021/11/11 04:11:05;;;;;;;23.42;6.35;;;;;;;;;;4993571;28;20046;-71
2021/11/11 04:13:32;;;;;;;23.60;5.85;;;;;;;;;;4993015;28;20104;-74
2021/11/11 04:16:00;;;;;;;23.42;5.60;;;;;;;;;;4992910;28;20047;-74
2021/11/11 04:18:32;;;;;;;23.25;6.07;;;;;;;;;;4992578;28;20498;-75
2021/11/11 04:21:00;;;;;;;17.15;5.43;;;;;;;;;;4990312;28;20405;-74
2021/11/11 04:23:29;;;;;;;20.58;6.45;;;;;;;;;;4992954;28;20129;-75
2021/11/11 04:28:54;;;;;;;23.38;5.80;;;;;;;;;;4992790;28;20133;-74
2021/11/11 04:31:30;;;;;;;22.00;6.18;;;;;;;;;;4992809;28;20065;-70
2021/11/11 04:34:04;;;;;;;25.25;7.13;;;;;;;;;;4992962;28;20478;-70
2021/11/11 04:39:50;;;;;;;14.05;5.07;;;;;;;;;;4992406;28;20090;-71
2021/11/11 05:01:26;;;;;;;15.50;4.80;;;;;;;;;;4992390;28;20050;-70
2021/11/11 05:03:54;;;;;;;22.10;5.43;;;;;;;;;;4991906;28;20058;-71
2021/11/11 05:06:22;;;;;;;20.15;5.85;;;;;;;;;;4991760;28;20046;-70
2021/11/11 05:08:50;;;;;;;20.55;5.90;;;;;;;;;;4992373;28;20066;-74
2021/11/11 05:11:21;;;;;;;22.70;5.97;;;;;;;;;;4992376;28;20424;-74
2021/11/11 05:13:50;;;;;;;25.98;6.32;;;;;;;;;;4992309;28;20057;-74
2021/11/11 05:16:18;;;;;;;16.05;5.18;;;;;;;;;;4991974;28;20101;-70
2021/11/11 05:18:47;;;;;;;22.60;5.75;;;;;;;;;;4991826;28;20070;-69
2021/11/11 05:21:17;;;;;;;21.15;6.50;;;;;;;;;;4991876;28;20046;-71
2021/11/11 05:23:44;;;;;;;19.77;5.90;;;;;;;;;;4991994;28;20039;-70
2021/11/11 05:26:16;;;;;;;27.20;6.13;;;;;;;;;;4992350;28;20046;-73
2021/11/11 05:28:44;;;;;;;22.35;6.40;;;;;;;;;;4992117;28;20042;-71
2021/11/11 05:31:15;;;;;;;27.77;5.78;;;;;;;;;;4992266;28;20057;-71
2021/11/11 05:33:43;;;;;;;17.90;5.70;;;;;;;;;;4991434;28;20050;-70
2021/11/11 05:36:13;;;;;;;30.95;8.20;;;;;;;;;;4991932;28;20042;-71
2021/11/11 05:38:41;;;;;;;21.70;7.15;;;;;;;;;;4991719;28;20050;-71
2021/11/11 05:41:10;;;;;;;22.95;6.70;;;;;;;;;;4992253;28;20042;-70
2021/11/11 05:43:39;;;;;;;22.30;6.90;;;;;;;;;;4992084;28;20038;-75
2021/11/11 05:46:07;;;;;;;22.40;6.25;;;;;;;;;;4991776;28;20100;-71
2021/11/11 05:48:38;;;;;;;27.55;6.15;;;;;;;;;;4991570;28;20069;-71
2021/11/11 05:51:07;;;;;;;19.58;6.75;;;;;;;;;;4991906;28;20073;-75
2021/11/11 05:53:36;;;;;;;26.55;7.13;;;;;;;;;;4992228;28;20093;-71
2021/11/11 05:56:04;;;;;;;20.40;6.40;;;;;;;;;;4991925;28;20042;-75
2021/11/11 05:58:32;;;;;;;16.27;6.05;;;;;;;;;;4993125;28;20046;-75
2021/11/11 06:01:02;;;;;;;19.77;6.10;;;;;;;;;;4976034;28;20046;-70
2021/11/11 06:03:43;;;;;;;22.02;5.90;;;;;;;;;;4992728;28;20053;-75
2021/11/11 06:06:11;;;;;;;15.68;6.03;;;;;;;;;;4995544;28;20054;-71
2021/11/11 06:08:42;;;;;;;29.33;6.32;;;;;;;;;;4995498;28;20066;-75
2021/11/11 06:11:11;;;;;;;24.73;6.07;;;;;;;;;;4995103;28;20104;-71
2021/11/11 06:13:39;;;;;;;17.83;6.10;;;;;;;;;;4996569;28;20068;-69
2021/11/11 06:16:06;;;;;;;19.85;6.18;;;;;;;;;;4995874;28;20042;-74
2021/11/11 06:18:34;;;;;;;27.52;6.90;;;;;;;;;;4995334;28;20061;-75
2021/11/11 06:21:01;;;;;;;26.80;6.43;;;;;;;;;;4994787;28;20047;-69
2021/11/11 06:23:34;;;;;;;36.70;8.05;;;;;;;;;;4994897;28;20459;-73
2021/11/11 06:26:03;;;;;;;18.95;6.13;;;;;;;;;;4994383;28;20054;-70
2021/11/11 06:28:35;;;;;;;26.48;6.55;;;;;;;;;;4994223;28;20082;-75
2021/11/11 06:31:04;;;;;;;25.67;6.10;;;;;;;;;;4994276;28;20572;-70
2021/11/11 06:33:33;;;;;;;23.42;6.50;;;;;;;;;;4992574;28;20072;-70
2021/11/11 06:36:01;;;;;;;22.27;6.55;;;;;;;;;;4978190;28;20089;-73
2021/11/11 06:38:29;;;;;;;23.75;5.55;;;;;;;;;;4995440;28;20038;-74
2021/11/11 06:40:57;;;;;;;23.58;6.00;;;;;;;;;;4995524;28;20122;-75
2021/11/11 06:43:24;;;;;;;30.23;7.35;;;;;;;;;;4995529;28;20042;-71
2021/11/11 06:45:52;;;;;;;29.70;6.18;;;;;;;;;;4994905;28;20046;-71
2021/11/11 06:48:20;;;;;;;29.77;7.30;;;;;;;;;;4995034;28;20121;-74
2021/11/11 06:50:48;;;;;;;22.30;6.60;;;;;;;;;;4995020;28;20053;-74
2021/11/11 06:53:16;;;;;;;21.33;5.53;;;;;;;;;;4994489;28;20112;-71
2021/11/11 06:55:46;;;;;;;25.42;6.88;;;;;;;;;;4994992;28;20129;-74
2021/11/11 06:58:15;;;;;;;26.52;5.85;;;;;;;;;;4995017;28;20038;-70
2021/11/11 07:00:44;;;;;;;24.00;5.65;;;;;;;;;;4993028;28;20058;-74
2021/11/11 07:03:14;;;;;;;20.33;6.53;;;;;;;;;;4993612;28;20057;-75
2021/11/11 07:05:45;;;;;;;23.45;6.15;;;;;;;;;;4992681;28;20467;-69
2021/11/11 07:08:13;;;;;;;20.60;5.68;;;;;;;;;;4994087;28;20046;-69
2021/11/11 07:10:42;;;;;;;21.48;5.93;;;;;;;;;;4994412;28;20053;-69
2021/11/11 07:13:10;;;;;;;21.02;6.10;;;;;;;;;;4994891;28;20054;-69
2021/11/11 07:15:38;;;;;;;23.65;5.70;;;;;;;;;;4994037;28;20047;-70
2021/11/11 07:18:08;;;;;;;24.65;5.88;;;;;;;;;;4994380;28;20042;-72
2021/11/11 07:20:40;;;;;;;25.17;5.93;;;;;;;;;;4993327;28;20048;-73
2021/11/11 07:23:08;;;;;;;29.33;6.13;;;;;;;;;;4993854;28;20104;-73
2021/11/11 07:25:35;;;;;;;26.98;6.47;;;;;;;;;;4995019;28;20073;-73
2021/11/11 07:28:03;;;;;;;28.42;6.55;;;;;;;;;;4994738;28;20126;-74
2021/11/11 07:30:30;;;;;;;24.17;6.20;;;;;;;;;;4994536;28;20049;-71
2021/11/11 07:32:58;;;;;;;20.02;5.78;;;;;;;;;;4994800;28;20042;-71
2021/11/11 07:35:25;;;;;;;30.45;6.28;;;;;;;;;;4993633;28;20038;-76
2021/11/11 07:37:53;;;;;;;36.03;7.32;;;;;;;;;;4994731;28;20415;-73
2021/11/11 07:40:23;;;;;;;27.30;6.07;;;;;;;;;;4992789;28;20046;-75
2021/11/11 07:42:51;;;;;;;22.45;5.90;;;;;;;;;;4976775;28;20129;-72
2021/11/11 07:45:31;;;;;;;33.80;6.65;;;;;;;;;;4992592;28;20045;-72
2021/11/11 07:48:01;;;;;;;27.60;7.32;;;;;;;;;;4994439;28;20366;-75
2021/11/11 07:50:30;;;;;;;20.90;5.32;;;;;;;;;;4994420;28;20038;-72
2021/11/11 07:53:00;;;;;;;24.50;6.65;;;;;;;;;;4993603;28;20054;-75
2021/11/11 07:55:29;;;;;;;20.15;5.50;;;;;;;;;;4993982;28;20042;-73
2021/11/11 07:58:00;;;;;;;22.30;6.22;;;;;;;;;;4994048;28;20473;-75
2021/11/11 08:00:29;;;;;;;18.38;4.85;;;;;;;;;;4993472;28;20041;-73
2021/11/11 08:02:56;;;;;;;20.52;6.03;;;;;;;;;;4993515;28;20042;-75
2021/11/11 08:05:25;;;;;;;18.65;6.07;;;;;;;;;;4992679;28;20125;-73
2021/11/11 08:07:53;;;;;;;20.38;6.30;;;;;;;;;;4993857;28;20046;-73
2021/11/11 08:10:22;;;;;;;24.25;5.30;;;;;;;;;;4992503;28;20062;-76
2021/11/11 08:12:52;;;;;;;19.08;5.38;;;;;;;;;;4993247;28;20469;-76
2021/11/11 08:15:20;;;;;;;20.23;5.55;;;;;;;;;;4993007;28;20514;-73
2021/11/11 08:17:47;;;;;;;23.30;6.70;;;;;;;;;;5001181;23;20042;-73
2021/11/11 08:20:15;;;;;;;21.40;5.47;;;;;;;;;;4993243;28;20413;-75
2021/11/11 08:22:43;;;;;;;20.52;5.75;;;;;;;;;;4993049;28;20034;-73
2021/11/11 08:25:12;;;;;;;22.98;5.63;;;;;;;;;;4993038;28;20408;-75
2021/11/11 08:27:40;;;;;;;25.40;6.40;;;;;;;;;;4992240;28;20046;-75
2021/11/11 08:30:09;;;;;;;21.75;5.65;;;;;;;;;;4992875;28;20042;-74
2021/11/11 08:32:41;;;;;;;23.23;6.03;;;;;;;;;;4993389;28;20077;-74
2021/11/11 08:35:09;;;;;;;20.98;5.35;;;;;;;;;;4991996;28;20505;-74
2021/11/11 08:37:37;;;;;;;20.13;5.10;;;;;;;;;;4991521;28;20046;-74
2021/11/11 08:40:05;;;;;;;29.50;6.40;;;;;;;;;;4993015;28;20405;-75
2021/11/11 08:42:34;;;;;;;22.80;5.88;;;;;;;;;;4992750;28;20038;-75
2021/11/11 08:45:02;;;;;;;25.60;6.70;;;;;;;;;;4991825;28;20046;-75
2021/11/11 08:47:31;;;;;;;33.58;6.93;;;;;;;;;;4992150;28;20073;-74
2021/11/11 08:49:59;;;;;;;21.27;6.50;;;;;;;;;;4991863;28;20081;-74
2021/11/11 08:52:28;;;;;;;26.55;5.80;;;;;;;;;;4991475;28;20304;-75
2021/11/11 08:54:56;;;;;;;19.45;5.47;;;;;;;;;;4975600;28;20060;-76
2021/11/11 08:57:23;;;;;;;24.70;5.95;;;;;;;;;;4992679;28;20045;-75
2021/11/11 09:00:08;;;;;;;16.73;5.00;;;;;;;;;;4992756;28;20034;-74
2021/11/11 09:02:35;;;;;;;;;;;;;;;;;;4992021;28;20093;-75
2021/11/11 09:05:03;;;;;;;32.30;6.60;;;;;;;;;;4992393;28;20021;-75
2021/11/11 09:07:31;;;;;;;20.33;5.40;;;;;;;;;;4992599;28;20042;-76
2021/11/11 09:09:59;;;;;;;25.05;5.95;;;;;;;;;;4992812;28;20435;-75
2021/11/11 09:12:27;;;;;;;25.73;5.93;;;;;;;;;;4992243;28;20056;-74
2021/11/11 09:14:54;;;;;;;17.85;5.50;;;;;;;;;;4992445;28;20141;-73
2021/11/11 09:17:22;;;;;;;31.83;6.57;;;;;;;;;;4992721;28;20039;-74
2021/11/11 09:19:50;;;;;;;29.45;6.43;;;;;;;;;;4992367;28;20050;-74
2021/11/11 09:22:17;;;;;;;17.52;5.55;;;;;;;;;;4992740;28;20045;-75
2021/11/11 09:24:45;;;;;;;23.70;5.70;;;;;;;;;;4992816;28;20401;-75
2021/11/11 09:27:12;;;;;;;24.98;5.72;;;;;;;;;;4992337;28;20046;-75
2021/11/11 09:29:40;;;;;;;25.08;5.38;;;;;;;;;;4992791;28;20053;-75
2021/11/11 09:32:08;;;;;;;21.85;5.85;;;;;;;;;;4975304;28;20050;-74
2021/11/11 09:34:35;;;;;;;28.50;6.10;;;;;;;;;;4992740;28;20507;-75
2021/11/11 09:37:04;;;;;;;22.20;6.30;;;;;;;;;;4991824;28;20519;-74
2021/11/11 09:39:31;;;;;;;17.33;5.13;;;;;;;;;;4995117;28;20045;-74
2021/11/11 09:42:01;;;;;;;29.35;6.35;;;;;;;;;;4995040;28;20121;-75
2021/11/11 09:44:30;;;;;;;24.58;5.78;;;;;;;;;;4997000;28;20125;-75
2021/11/11 09:47:10;;;;;;;15.17;5.10;;;;;;;;;;4996898;28;20050;-75
2021/11/11 09:49:38;;;;;;;22.52;6.22;;;;;;;;;;4997086;28;20073;-75
2021/11/11 09:52:07;;;;;;;24.77;4.85;;;;;;;;;;4995601;28;20056;-72
2021/11/11 09:59:49;;;;;;;26.83;5.68;;;;;;;;;;4995786;28;20046;-73
2021/11/11 10:02:18;;;;;;;25.13;6.25;;;;;;;;;;4996607;28;20049;-73
2021/11/11 10:04:46;;;;;;;28.77;6.00;;;;;;;;;;4995229;28;20050;-74
2021/11/11 10:07:14;;;;;;;20.02;5.07;;;;;;;;;;4995230;28;20046;-73
2021/11/11 10:09:46;;;;;;;25.90;5.72;;;;;;;;;;4996512;28;20046;-73
2021/11/11 10:12:21;;;;;;;24.75;6.25;;;;;;;;;;4995214;28;20133;-74
2021/11/11 10:14:49;;;;;;;21.90;5.68;;;;;;;;;;4994518;28;20133;-71
2021/11/11 10:17:19;;;;;;;24.02;5.80;;;;;;;;;;4995856;28;20504;-73
2021/11/11 10:19:48;;;;;;;23.52;5.03;;;;;;;;;;4995594;28;20494;-74
2021/11/11 10:22:23;;;;;;;23.35;5.45;;;;;;;;;;4995574;28;20057;-76
2021/11/11 10:24:55;;;;;;;27.70;6.28;;;;;;;;;;4995103;28;20112;-74
2021/11/11 10:27:31;;;;;;;26.00;7.65;;;;;;;;;;4995571;28;20500;-76
2021/11/11 10:30:06;;;;;;;29.15;6.80;;;;;;;;;;4995441;28;20038;-73
2021/11/11 10:32:42;;;;;;;31.23;6.65;;;;;;;;;;4991956;28;20589;-75
2021/11/11 10:35:22;;;;;;;29.45;6.35;;;;;;;;;;4995305;28;20482;-73
2021/11/11 10:37:50;;;;;;;23.13;6.65;;;;;;;;;;4995563;28;20113;-76
2021/11/11 10:40:22;;;;;;;26.27;6.70;;;;;;;;;;4994842;28;20034;-76
2021/11/11 10:42:55;;;;;;;27.25;6.63;;;;;;;;;;4994986;28;20045;-74
2021/11/11 10:45:24;;;;;;;15.80;5.27;;;;;;;;;;4995252;28;20046;-73
2021/11/11 10:47:53;;;;;;;22.65;5.57;;;;;;;;;;4995198;28;20043;-76
2021/11/11 10:50:25;;;;;;;19.38;5.32;;;;;;;;;;4994478;28;20217;-76
2021/11/11 10:52:57;;;;;;;23.85;5.20;;;;;;;;;;4994836;28;20481;-76
2021/11/11 10:55:25;;;;;;;34.03;6.00;;;;;;;;;;4995020;28;20074;-72
2021/11/11 10:57:55;;;;;;;17.88;5.03;;;;;;;;;;4995010;28;20038;-76
2021/11/11 11:00:32;;;;;;;27.67;7.00;;;;;;;;;;4994956;28;20459;-73
2021/11/11 11:03:08;;;;;;;19.88;5.63;;;;;;;;;;4994960;28;20493;-74
2021/11/11 11:05:36;;;;;;;27.00;7.53;;;;;;;;;;4993865;28;20141;-76
2021/11/11 11:08:11;;;;;;;21.98;6.53;;;;;;;;;;4994490;28;20042;-73
2021/11/11 11:10:40;;;;;;;20.95;6.50;;;;;;;;;;4994738;28;20133;-76
2021/11/11 11:13:34;;;;;;;18.00;4.57;;;;;;;;;;4994890;28;20068;-73
2021/11/11 11:16:04;;;;;;;27.38;5.40;;;;;;;;;;4994652;28;20104;-77
2021/11/11 11:18:36;;;;;;;15.27;5.05;;;;;;;;;;4994450;28;20058;-77
2021/11/11 11:21:13;;;;;;;25.23;5.75;;;;;;;;;;4993272;28;20133;-75
2021/11/11 11:23:43;;;;;;;21.38;4.75;;;;;;;;;;4994322;28;20042;-76
2021/11/11 11:26:12;;;;;;;23.52;5.68;;;;;;;;;;4994479;28;20054;-76
2021/11/11 11:28:48;;;;;;;24.92;5.88;;;;;;;;;;4994647;28;20042;-77
2021/11/11 11:31:26;;;;;;;17.42;5.28;;;;;;;;;;4994487;28;20043;-77
2021/11/11 11:33:55;;;;;;;22.20;6.05;;;;;;;;;;4993999;28;20050;-76
2021/11/11 11:36:52;;;;;;;23.73;5.47;;;;;;;;;;4992534;28;20446;-77
2021/11/11 11:39:22;;;;;;;28.13;5.32;;;;;;;;;;4993151;28;20068;-77
2021/11/11 11:41:50;;;;;;;21.35;4.97;;;;;;;;;;4994033;28;20045;-76
2021/11/11 11:44:34;;;;;;;13.05;4.10;;;;;;;;;;4994277;28;20053;-73
2021/11/11 11:49:57;;;;;;;20.17;6.03;;;;;;;;;;4994085;28;20062;-76
2021/11/11 11:52:27;;;;;;;20.05;5.38;;;;;;;;;;4994104;28;20105;-77
2021/11/11 11:57:44;;;;;;;21.50;5.15;;;;;;;;;;4993663;28;20096;-76
2021/11/11 12:05:57;;;;;;;28.10;5.53;;;;;;;;;;4993311;28;20501;-76
2021/11/11 12:39:31;;;;;;;18.05;6.13;;;;;;;;;;4993517;28;20117;-76
2021/11/11 12:42:02;;;;;;;21.17;6.43;;;;;;;;;;4993807;28;20121;-75
2021/11/11 12:44:31;;;;;;;19.90;5.40;;;;;;;;;;4993764;28;20057;-75
2021/11/11 12:46:59;;;;;;;18.90;5.63;;;;;;;;;;4992749;28;20040;-73
2021/11/11 12:49:29;;;;;;;28.23;5.80;;;;;;;;;;4991982;28;20064;-77
2021/11/11 12:52:15;;;;;;;24.48;5.47;;;;;;;;;;4990022;28;20141;-76
2021/11/11 12:54:44;;;;;;;16.90;4.47;;;;;;;;;;4993239;28;20052;-76
2021/11/11 12:57:12;;;;;;;23.30;5.15;;;;;;;;;;4993707;28;20058;-73
2021/11/11 12:59:40;;;;;;;23.75;5.88;;;;;;;;;;4993562;28;20038;-73
2021/11/11 13:02:09;;;;;;;22.88;5.80;;;;;;;;;;4991274;28;20444;-74
2021/11/11 13:04:47;;;;;;;21.67;5.93;;;;;;;;;;4991086;28;20035;-75
2021/11/11 13:07:24;;;;;;;24.48;6.07;;;;;;;;;;4992143;28;20072;-76
2021/11/11 13:10:22;;;;;;;27.10;5.38;;;;;;;;;;4991983;28;20073;-74
2021/11/11 13:13:09;;;;;;;17.17;4.75;;;;;;;;;;4987090;28;20220;-76
2021/11/11 13:15:42;;;;;;;26.60;6.38;;;;;;;;;;4996835;28;20089;-76
2021/11/11 13:18:11;;;;;;;20.53;4.93;;;;;;;;;;4994414;28;20058;-74
2021/11/11 13:20:50;;;;;;;19.55;5.18;;;;;;;;;;4995880;28;20048;-77
2021/11/11 13:23:38;;;;;;;18.25;5.25;;;;;;;;;;4996645;28;20147;-75
2021/11/11 13:26:38;;;;;;;24.55;5.65;;;;;;;;;;4996755;28;20074;-78
2021/11/11 13:54:56;;;;;;;29.60;6.40;;;;;;;;;;4996084;28;20442;-75
2021/11/11 15:14:55;;;;;;;22.67;6.70;;;;;;;;;;4995110;28;20437;-75
2021/11/11 15:19:49;;;;;;;31.55;6.32;;;;;;;;;;4993487;28;20394;-75
2021/11/11 16:02:29;;;;;;;33.28;6.25;;;;;;;;;;4994411;28;20651;-75
2021/11/11 16:26:44;;;;;;;46.22;9.20;;;;;;;;;;4993022;28;20466;-73
2021/11/11 16:29:11;;;;;;;35.72;7.85;;;;;;;;;;4990981;28;20050;-77
2021/11/11 16:31:52;;;;;;;35.15;9.70;;;;;;;;;;4988638;28;20061;-77
2021/11/11 16:34:20;;;;;;;34.88;9.20;;;;;;;;;;4992522;28;20039;-78
2021/11/11 16:36:49;;;;;;;42.53;10.32;;;;;;;;;;4993346;28;20038;-76
2021/11/11 16:39:16;;;;;;;43.05;10.57;;;;;;;;;;4993201;28;20042;-79
2021/11/11 16:41:44;;;;;;;36.33;8.90;;;;;;;;;;4991902;28;20042;-78
2021/11/11 16:44:13;;;;;;;43.22;10.07;;;;;;;;;;4994020;28;20042;-79
2021/11/11 16:46:41;;;;;;;43.63;10.32;;;;;;;;;;4992283;28;20425;-78
2021/11/11 16:49:10;;;;;;;45.38;10.57;;;;;;;;;;4993730;28;20073;-79
2021/11/11 16:51:39;;;;;;;50.35;12.35;;;;;;;;;;4991890;28;20418;-77
2021/11/11 16:54:07;;;;;;;55.08;14.27;;;;;;;;;;4993468;28;20071;-79
2021/11/11 16:56:34;;;;;;;42.92;11.90;;;;;;;;;;4991876;28;20041;-75
2021/11/11 16:59:02;;;;;;;54.00;11.40;;;;;;;;;;4992789;28;20047;-75
2021/11/11 17:01:30;;;;;;;47.45;11.32;;;;;;;;;;4992769;28;20034;-73
2021/11/11 17:03:58;;;;;;;53.35;11.43;;;;;;;;;;4993462;28;20457;-76
2021/11/11 17:06:26;;;;;;;55.53;10.85;;;;;;;;;;4993886;28;20035;-76
2021/11/11 17:08:54;;;;;;;58.35;14.00;;;;;;;;;;4993548;28;20046;-77
2021/11/11 17:11:21;;;;;;;56.28;13.20;;;;;;;;;;4992526;28;20046;-76
2021/11/11 17:13:49;;;;;;;49.53;11.10;;;;;;;;;;4993400;28;20053;-80
2021/11/11 17:16:19;;;;;;;5.45;2.65;;;;;;;;;;4992119;28;20484;-81
2021/11/11 17:18:49;;;;;;;0.08;0.08;;;;;;;;;;4991429;28;20050;-79
2021/11/11 17:21:20;;;;;;;0.38;0.38;;;;;;;;;;4993410;28;20054;-80
2021/11/11 17:23:54;;;;;;;0.15;0.15;;;;;;;;;;4993225;28;20060;-78
2021/11/11 17:29:00;;;;;;;4.97;2.05;;;;;;;;;;4992546;28;20133;-80
2021/11/11 17:31:28;;;;;;;1.75;1.55;;;;;;;;;;4992092;28;20409;-81
2021/11/11 17:33:56;;;;;;;2.28;1.13;;;;;;;;;;4993369;28;20038;-79
2021/11/11 17:36:24;;;;;;;0.28;0.28;;;;;;;;;;4993395;28;20121;-79
2021/11/11 17:38:53;;;;;;;4.03;1.20;;;;;;;;;;4993115;28;20043;-77
2021/11/11 17:41:22;;;;;;;0.17;0.17;;;;;;;;;;4993014;28;20482;-76
2021/11/11 17:43:52;;;;;;;0.52;0.50;;;;;;;;;;4991741;28;20089;-75
2021/11/11 17:46:26;;;;;;;5.30;1.08;;;;;;;;;;4992233;28;20039;-79
2021/11/11 17:48:57;;;;;;;2.63;1.73;;;;;;;;;;4992977;28;20374;-78
2021/11/11 17:54:09;;;;;;;1.13;0.55;;;;;;;;;;4992399;28;20050;-76
2021/11/11 17:56:40;;;;;;;0.20;0.20;;;;;;;;;;4992561;28;20125;-79
2021/11/11 17:59:10;;;;;;;0.70;0.70;;;;;;;;;;4995066;28;20455;-76
2021/11/11 18:01:44;;;;;;;1.65;0.70;;;;;;;;;;4996574;28;20054;-77
2021/11/11 18:04:11;;;;;;;4.45;1.70;;;;;;;;;;4996649;28;20038;-78
2021/11/11 18:06:44;;;;;;;0.90;0.90;;;;;;;;;;4996822;28;20038;-77
2021/11/11 18:09:15;;;;;;;6.45;1.02;;;;;;;;;;4995174;28;20042;-79
2021/11/11 18:11:48;;;;;;;1.02;1.02;;;;;;;;;;4996560;28;20129;-76
2021/11/11 18:14:22;;;;;;;0.50;0.50;;;;;;;;;;4995811;28;20077;-77
2021/11/11 18:16:53;;;;;;;3.10;0.75;;;;;;;;;;4996469;28;20050;-76
2021/11/11 18:19:21;;;;;;;0.98;0.50;;;;;;;;;;4996013;28;20046;-76
2021/11/11 18:21:52;;;;;;;0.20;0.20;;;;;;;;;;4994713;28;20050;-79
2021/11/11 18:24:22;;;;;;;0.10;0.10;;;;;;;;;;4995305;28;20042;-81
2021/11/11 18:26:50;;;;;;;0.35;0.35;;;;;;;;;;4995874;28;20482;-78
2021/11/11 18:29:23;;;;;;;2.17;0.70;;;;;;;;;;4996552;28;20409;-79
2021/11/11 18:34:21;;;;;;;0.90;0.30;;;;;;;;;;4996087;28;20701;-75
2021/11/11 18:37:03;;;;;;;5.18;0.75;;;;;;;;;;4994510;28;20105;-76
2021/11/11 18:39:32;;;;;;;1.77;1.60;;;;;;;;;;4992832;28;20042;-77
2021/11/11 18:42:00;;;;;;;6.57;0.93;;;;;;;;;;4993544;28;20676;-80
2021/11/11 18:44:33;;;;;;;0.85;0.82;;;;;;;;;;4996324;28;20410;-80
2021/11/11 18:47:07;;;;;;;1.42;0.63;;;;;;;;;;4994465;28;20061;-80
2021/11/11 18:49:38;;;;;;;4.30;0.95;;;;;;;;;;4995990;28;20101;-79
2021/11/11 18:52:06;;;;;;;0.77;0.75;;;;;;;;;;4995991;28;20126;-76
2021/11/11 18:54:38;;;;;;;1.85;1.02;;;;;;;;;;4993540;28;20041;-79
2021/11/11 18:57:08;;;;;;;0.40;0.40;;;;;;;;;;4996142;28;20096;-79